Time;durP1;ratioP1;P1;durP2;ratioP2;P2;SDS_P1;SDS_P2;PMS_P1;PMS_P2;Temp;Humidity;BMP_temperature;BMP_pressure;BME280_temperature;BME280_humidity;BME280_pressure;Samples;Min_cycle;Max_cycle;Signal;HPM_P1;HPM_P2
2021/01/19 00:00:16;;;;;;;32.30;10.67;;;;;;;-12.87;61.69;101325.35;121682;1141;104328;-76
2021/01/19 00:03:02;;;;;;;47.40;16.00;;;;;;;-12.92;62.93;101334.81;121314;1141;104348;-75
2021/01/19 00:05:31;;;;;;;35.20;10.57;;;;;;;-12.95;62.20;101336.91;121671;1141;104342;-75
2021/01/19 00:08:00;;;;;;;41.23;12.67;;;;;;;-12.96;62.49;101331.64;121695;1141;104330;-76
2021/01/19 00:10:29;;;;;;;45.60;15.70;;;;;;;-12.99;62.57;101328.69;121341;1141;104533;-76
2021/01/19 00:12:58;;;;;;;41.50;13.70;;;;;;;-13.04;62.37;101322.98;121609;1141;104799;-76
2021/01/19 00:15:27;;;;;;;49.10;16.73;;;;;;;-13.05;62.27;101324.60;121647;1141;104349;-76
2021/01/19 00:17:56;;;;;;;45.37;15.97;;;;;;;-13.03;61.72;101329.88;121622;1141;105570;-75
2021/01/19 00:20:25;;;;;;;35.77;10.77;;;;;;;-13.01;63.03;101328.47;121337;1141;104403;-75
2021/01/19 00:22:54;;;;;;;50.03;17.67;;;;;;;-12.99;63.22;101322.04;121348;1141;104470;-75
2021/01/19 00:25:23;;;;;;;55.57;17.33;;;;;;;-12.95;61.92;101325.91;121369;1141;104360;-75
2021/01/19 00:27:52;;;;;;;46.07;16.70;;;;;;;-12.97;62.22;101319.73;121351;1141;104398;-75
2021/01/19 00:30:21;;;;;;;46.97;17.27;;;;;;;-12.95;61.96;101320.84;121317;1141;104345;-76
2021/01/19 00:32:50;;;;;;;47.23;16.93;;;;;;;-12.94;62.22;101312.58;121384;1141;104400;-76
2021/01/19 00:35:19;;;;;;;41.03;13.37;;;;;;;-12.96;62.65;101316.48;121362;1141;104339;-76
2021/01/19 00:37:48;;;;;;;47.80;16.70;;;;;;;-13.00;61.65;101316.77;121340;1141;104504;-76
2021/01/19 00:40:18;;;;;;;51.70;16.63;;;;;;;-13.01;61.86;101315.83;121350;1141;104406;-76
2021/01/19 00:42:47;;;;;;;48.80;15.97;;;;;;;-13.02;61.92;101311.50;121292;1141;104346;-76
2021/01/19 00:45:16;;;;;;;42.73;13.57;;;;;;;-13.00;61.97;101314.24;121225;1141;104335;-76
2021/01/19 00:47:45;;;;;;;50.57;17.57;;;;;;;-13.06;62.01;101310.12;121249;1141;104341;-76
2021/01/19 00:50:15;;;;;;;46.10;13.37;;;;;;;-13.07;61.71;101307.39;121326;1141;104461;-76
2021/01/19 00:52:44;;;;;;;46.50;15.53;;;;;;;-13.11;62.31;101306.05;121325;1141;104344;-76
2021/01/19 00:55:15;;;;;;;55.27;18.17;;;;;;;-13.09;62.55;101301.22;121308;1141;104797;-76
2021/01/19 00:57:47;;;;;;;52.87;17.50;;;;;;;-13.07;62.47;101299.81;121330;1141;104435;-76
2021/01/19 01:00:18;;;;;;;43.00;16.60;;;;;;;-13.09;63.18;101302.13;121354;1141;104439;-76
2021/01/19 01:02:47;;;;;;;51.67;16.80;;;;;;;-13.11;62.02;101303.53;121365;1141;104338;-75
2021/01/19 01:05:16;;;;;;;43.40;15.80;;;;;;;-13.12;61.75;101306.73;121343;1141;104359;-75
2021/01/19 01:07:45;;;;;;;49.53;16.57;;;;;;;-13.12;62.79;101309.27;121320;1141;104400;-76
2021/01/19 01:10:16;;;;;;;47.70;17.25;;;;;;;-13.11;61.74;101307.67;121298;1141;104339;-75
2021/01/19 01:12:47;;;;;;;47.03;16.90;;;;;;;-13.12;62.45;101313.41;121307;1142;104339;-76
2021/01/19 01:15:22;;;;;;;51.27;16.93;;;;;;;-13.13;62.70;101309.98;121310;1141;104332;-75
2021/01/19 01:17:51;;;;;;;47.70;17.43;;;;;;;-13.14;61.96;101305.62;121413;1141;104450;-75
2021/01/19 01:20:20;;;;;;;50.20;17.07;;;;;;;-13.15;63.23;101311.36;121785;1141;104374;-77
2021/01/19 01:22:50;;;;;;;55.77;18.50;;;;;;;-13.16;62.08;101311.18;121756;1139;104440;-76
2021/01/19 01:25:19;;;;;;;43.23;16.37;;;;;;;-13.16;62.32;101311.18;121724;1141;104338;-76
2021/01/19 01:27:49;;;;;;;51.70;17.90;;;;;;;-13.16;62.94;101307.03;121713;1141;104352;-76
2021/01/19 01:30:19;;;;;;;51.97;18.47;;;;;;;-13.13;63.01;101299.88;121678;1141;104442;-76
2021/01/19 01:32:50;;;;;;;42.73;14.77;;;;;;;-13.09;62.37;101303.75;121666;1141;104324;-75
2021/01/19 01:35:22;;;;;;;42.30;14.15;;;;;;;-13.10;62.19;101294.33;121726;1141;104334;-75
2021/01/19 01:37:52;;;;;;;47.80;15.43;;;;;;;-13.13;62.48;101294.83;121623;1141;104525;-75
2021/01/19 01:40:24;;;;;;;38.45;13.25;;;;;;;-13.15;62.92;101287.72;121642;1141;104336;-75
2021/01/19 01:42:54;;;;;;;43.73;14.20;;;;;;;-13.16;61.79;101291.88;121429;1141;104402;-75
2021/01/19 01:45:25;;;;;;;36.80;12.77;;;;;;;-13.18;61.97;101293.28;121706;1141;104308;-75
2021/01/19 01:47:56;;;;;;;46.70;16.50;;;;;;;-13.22;62.02;101296.05;121716;1141;104334;-75
2021/01/19 01:50:26;;;;;;;40.47;14.03;;;;;;;-13.21;62.89;101295.38;121732;1141;104335;-74
2021/01/19 01:52:58;;;;;;;54.03;18.87;;;;;;;-13.18;62.41;101288.23;121689;1141;104395;-75
2021/01/19 01:55:28;;;;;;;38.50;13.77;;;;;;;-13.13;62.18;101291.37;121743;1141;104338;-75
2021/01/19 01:57:57;;;;;;;39.10;13.77;;;;;;;-13.12;62.86;101289.06;121357;1141;104398;-75
2021/01/19 02:00:26;;;;;;;43.27;16.73;;;;;;;-13.13;62.45;101296.42;121778;1141;104440;-76
2021/01/19 02:02:57;;;;;;;49.87;17.33;;;;;;;-13.10;63.08;101299.38;121736;1140;104336;-74
2021/01/19 02:05:27;;;;;;;49.17;17.67;;;;;;;-13.07;62.28;101297.28;121576;1141;104394;-76
2021/01/19 02:08:15;;;;;;;46.53;17.17;;;;;;;-13.06;62.43;101289.02;121640;1141;104398;-76
2021/01/19 02:10:58;;;;;;;46.50;16.57;;;;;;;-13.06;61.83;101286.48;121705;1141;104385;-75
2021/01/19 02:13:35;;;;;;;49.00;17.10;;;;;;;-13.10;61.90;101292.73;121747;1141;104332;-75
2021/01/19 02:16:28;;;;;;;45.83;15.97;;;;;;;-13.09;62.31;101293.64;121687;1141;104358;-74
2021/01/19 02:19:24;;;;;;;52.83;17.37;;;;;;;-13.07;62.64;101295.69;121707;1141;104335;-75
2021/01/19 02:22:14;;;;;;;50.93;17.60;;;;;;;-12.92;62.62;101296.91;121715;1141;104372;-75
2021/01/19 02:25:00;;;;;;;54.87;18.53;;;;;;;-12.74;62.36;101312.84;121720;1141;104341;-75
2021/01/19 02:27:48;;;;;;;54.17;17.27;;;;;;;-12.61;62.80;101315.46;121714;1141;104503;-75
2021/01/19 02:30:41;;;;;;;52.57;17.00;;;;;;;-12.46;62.82;101315.06;121657;1141;104452;-77
2021/01/19 02:33:22;;;;;;;51.23;17.77;;;;;;;-12.41;62.96;101314.08;121644;1141;104388;-75
2021/01/19 02:36:02;;;;;;;52.57;18.87;;;;;;;-12.34;63.34;101318.36;121764;1141;104375;-75
2021/01/19 02:38:40;;;;;;;59.30;19.90;;;;;;;-12.25;63.39;101312.04;121692;1141;104381;-76
2021/01/19 02:41:10;;;;;;;46.23;18.30;;;;;;;-12.08;62.93;101308.40;121715;1140;104436;-76
2021/01/19 02:43:41;;;;;;;60.07;18.90;;;;;;;-11.94;62.78;101301.97;121591;1141;104383;-77
2021/01/19 02:46:10;;;;;;;57.57;18.37;;;;;;;-11.88;62.61;101309.46;121696;1141;104441;-75
2021/01/19 02:48:39;;;;;;;54.60;18.70;;;;;;;-11.90;62.93;101307.41;121723;1141;104799;-75
2021/01/19 02:51:08;;;;;;;53.60;20.20;;;;;;;-11.87;62.95;101303.70;121728;1141;104378;-75
2021/01/19 02:53:37;;;;;;;52.63;18.10;;;;;;;-11.89;62.78;101314.31;121705;1141;104314;-75
2021/01/19 02:56:14;;;;;;;56.63;18.60;;;;;;;-11.95;63.04;101310.29;121709;1141;104470;-75
2021/01/19 02:59:01;;;;;;;49.83;17.70;;;;;;;-12.00;62.32;101305.29;121298;1141;104469;-76
2021/01/19 03:01:36;;;;;;;55.47;18.67;;;;;;;-11.97;63.45;101310.77;121659;1141;104347;-76
2021/01/19 03:04:06;;;;;;;44.67;17.63;;;;;;;-11.95;62.93;101314.41;121724;1141;104372;-75
2021/01/19 03:06:36;;;;;;;48.67;16.93;;;;;;;-12.01;62.94;101314.52;121718;1139;104790;-75
2021/01/19 03:09:07;;;;;;;48.40;17.90;;;;;;;-11.94;62.75;101316.25;121723;1141;104489;-75
2021/01/19 03:11:37;;;;;;;44.67;18.47;;;;;;;-11.93;62.44;101315.56;121693;1141;104345;-75
2021/01/19 03:14:06;;;;;;;55.70;20.83;;;;;;;-11.92;63.16;101309.77;121419;1141;104351;-75
2021/01/19 03:16:35;;;;;;;50.97;18.17;;;;;;;-11.90;62.62;101308.35;121777;1141;104343;-76
2021/01/19 03:19:05;;;;;;;54.97;19.47;;;;;;;-11.96;62.94;101308.45;121801;1141;104331;-77
2021/01/19 03:21:34;;;;;;;55.60;19.17;;;;;;;-12.07;62.83;101306.08;121757;1141;104348;-76
2021/01/19 03:24:04;;;;;;;50.70;18.70;;;;;;;-12.12;63.23;101302.91;121686;1141;104672;-75
2021/01/19 03:26:33;;;;;;;52.73;17.43;;;;;;;-12.15;63.12;101314.24;121690;1141;104342;-75
2021/01/19 03:29:04;;;;;;;48.07;17.53;;;;;;;-12.11;63.35;101301.29;121716;1141;104336;-75
2021/01/19 03:31:33;;;;;;;53.53;18.37;;;;;;;-12.08;63.09;101304.23;121709;1141;104442;-75
2021/01/19 03:34:02;;;;;;;51.97;18.23;;;;;;;-12.16;63.04;101310.77;121736;1141;104530;-75
2021/01/19 03:36:31;;;;;;;50.43;18.63;;;;;;;-12.20;62.24;101306.02;121634;1141;104398;-75
2021/01/19 03:39:00;;;;;;;56.10;18.93;;;;;;;-12.25;63.15;101306.08;121730;1141;104405;-76
2021/01/19 03:41:29;;;;;;;54.13;18.83;;;;;;;-12.36;62.58;101302.06;121734;1141;104566;-76
2021/01/19 03:43:58;;;;;;;51.93;17.57;;;;;;;-12.42;63.05;101307.18;121691;1141;104340;-75
2021/01/19 03:46:28;;;;;;;52.97;18.77;;;;;;;-12.52;62.63;101294.89;121749;1141;104333;-75
2021/01/19 03:48:57;;;;;;;58.90;20.70;;;;;;;-12.55;62.14;101303.67;121595;1141;104363;-75
2021/01/19 03:51:29;;;;;;;53.03;18.97;;;;;;;-12.70;62.67;101305.91;121624;1141;104454;-75
2021/01/19 03:53:57;;;;;;;58.07;22.83;;;;;;;-12.82;61.73;101306.72;121272;1141;104442;-74
2021/01/19 03:56:26;;;;;;;54.10;19.67;;;;;;;-12.86;61.94;101300.30;121715;1141;104892;-75
2021/01/19 03:58:55;;;;;;;60.37;19.50;;;;;;;-12.82;62.82;101303.25;121699;1141;104511;-76
2021/01/19 04:01:24;;;;;;;54.17;19.40;;;;;;;-12.77;62.10;101305.73;121669;1140;104336;-75
2021/01/19 04:03:53;;;;;;;59.43;19.63;;;;;;;-12.74;62.59;101308.69;121731;1141;104378;-75
2021/01/19 04:06:22;;;;;;;52.13;19.07;;;;;;;-12.71;62.67;101303.16;121728;1141;104339;-76
2021/01/19 04:08:51;;;;;;;59.37;19.70;;;;;;;-12.69;62.61;101304.28;121694;1141;104436;-75
2021/01/19 04:11:20;;;;;;;59.60;20.77;;;;;;;-12.63;63.34;101304.20;121603;1141;104356;-76
2021/01/19 04:13:49;;;;;;;57.97;19.50;;;;;;;-12.62;63.18;101304.41;121697;1141;104348;-77
2021/01/19 04:16:18;;;;;;;51.97;19.23;;;;;;;-12.60;62.58;101307.16;121605;1141;104436;-76
2021/01/19 04:18:47;;;;;;;59.60;19.27;;;;;;;-12.58;63.22;101313.36;121650;1141;105961;-75
2021/01/19 04:21:16;;;;;;;54.53;18.43;;;;;;;-12.53;62.68;101304.79;121428;1141;104380;-75
2021/01/19 04:23:45;;;;;;;50.33;18.47;;;;;;;-12.46;62.93;101297.36;121684;1141;104496;-75
2021/01/19 04:26:14;;;;;;;53.60;18.87;;;;;;;-12.38;63.39;101299.33;121708;1141;104343;-77
2021/01/19 04:28:43;;;;;;;55.07;18.37;;;;;;;-12.33;63.07;101302.49;121643;1141;104461;-76
2021/01/19 04:31:12;;;;;;;53.60;17.93;;;;;;;-12.28;62.41;101305.66;121649;1141;104523;-76
2021/01/19 04:33:40;;;;;;;50.93;16.93;;;;;;;-12.26;63.09;101307.70;121825;1141;104348;-76
2021/01/19 04:36:10;;;;;;;50.07;17.23;;;;;;;-12.25;62.83;101301.92;121727;1141;104336;-77
2021/01/19 04:38:39;;;;;;;49.43;16.37;;;;;;;-12.17;63.33;101313.09;121626;1141;104386;-78
2021/01/19 04:41:09;;;;;;;56.17;18.37;;;;;;;-12.17;63.31;101305.51;121637;1140;104350;-75
2021/01/19 04:43:39;;;;;;;57.83;20.87;;;;;;;-12.12;63.21;101305.45;121565;1141;104406;-76
2021/01/19 04:46:10;;;;;;;63.47;21.77;;;;;;;-12.15;62.95;101297.44;121306;1141;104381;-75
2021/01/19 04:48:42;;;;;;;61.60;22.17;;;;;;;-12.22;63.14;101289.69;121683;1141;104404;-77
2021/01/19 04:51:21;;;;;;;62.33;22.33;;;;;;;-12.29;63.25;101299.69;121674;1141;104478;-75
2021/01/19 04:54:02;;;;;;;64.17;22.43;;;;;;;-12.47;63.08;101287.94;121710;1141;104377;-76
2021/01/19 04:56:33;;;;;;;66.43;21.80;;;;;;;-12.51;62.60;101293.26;121713;1140;104430;-75
2021/01/19 04:59:11;;;;;;;62.97;22.10;;;;;;;-12.52;63.00;101288.92;121692;1141;104339;-76
2021/01/19 05:02:11;;;;;;;61.10;21.87;;;;;;;-12.55;63.39;101284.34;121701;1141;104442;-75
2021/01/19 05:05:03;;;;;;;62.07;21.23;;;;;;;-12.62;62.51;101290.87;121647;1141;104477;-76
2021/01/19 05:07:34;;;;;;;62.03;22.87;;;;;;;-12.64;62.33;101293.19;121708;1141;104913;-77
2021/01/19 05:10:09;;;;;;;59.83;22.23;;;;;;;-12.76;62.54;101288.95;121680;1141;104457;-77
2021/01/19 05:12:41;;;;;;;61.53;22.23;;;;;;;-12.90;61.88;101287.95;121628;1141;104337;-77
2021/01/19 05:15:12;;;;;;;56.53;20.37;;;;;;;-13.07;62.04;101288.11;121562;1141;104339;-76
2021/01/19 05:17:42;;;;;;;52.07;17.33;;;;;;;-13.22;62.89;101280.91;121279;1141;104389;-77
2021/01/19 05:20:13;;;;;;;55.47;18.47;;;;;;;-13.41;62.84;101283.39;121503;1141;104340;-78
2021/01/19 05:22:42;;;;;;;53.03;18.87;;;;;;;-13.50;62.73;101287.13;123337;1139;101797;-76
2021/01/19 05:25:11;;;;;;;54.90;19.10;;;;;;;-13.61;62.12;101287.22;123350;1140;101780;-76
2021/01/19 05:27:40;;;;;;;38.27;12.77;;;;;;;-13.70;62.07;101289.34;121968;1141;104503;-79
2021/01/19 05:30:10;;;;;;;64.57;21.07;;;;;;;-13.80;63.12;101282.06;121263;1141;104478;-78
2021/01/19 05:32:41;;;;;;;45.83;16.67;;;;;;;-13.77;63.08;101284.13;121381;1141;104410;-78
2021/01/19 05:35:15;;;;;;;55.57;18.73;;;;;;;-13.76;62.68;101293.50;121593;1141;104454;-75
2021/01/19 05:37:57;;;;;;;49.40;17.63;;;;;;;-13.86;61.98;101292.90;121619;1141;104350;-75
2021/01/19 05:40:27;;;;;;;47.77;17.40;;;;;;;-13.94;61.86;101294.33;121470;1141;104523;-76
2021/01/19 05:42:57;;;;;;;55.10;19.40;;;;;;;-13.99;61.98;101292.72;121684;1141;104324;-75
2021/01/19 05:45:26;;;;;;;54.93;17.73;;;;;;;-14.07;63.05;101291.61;121571;1141;104340;-74
2021/01/19 05:47:57;;;;;;;48.00;16.20;;;;;;;-14.07;62.67;101290.71;121082;1141;104355;-75
2021/01/19 05:50:26;;;;;;;53.50;16.37;;;;;;;-14.11;61.95;101290.27;121556;1140;104371;-73
2021/01/19 05:52:56;;;;;;;50.80;18.10;;;;;;;-14.15;63.36;101294.65;121651;1141;104352;-75
2021/01/19 05:55:28;;;;;;;42.95;15.60;;;;;;;-14.14;62.52;101302.44;121477;1141;104339;-74
2021/01/19 05:57:59;;;;;;;49.40;16.33;;;;;;;-14.14;63.17;101302.44;121549;1141;104373;-74
2021/01/19 06:00:29;;;;;;;55.50;19.57;;;;;;;-14.16;62.13;101301.31;121174;1141;104358;-74
2021/01/19 06:03:14;;;;;;;48.83;16.97;;;;;;;-14.16;63.32;101301.31;121447;1141;104342;-74
2021/01/19 06:05:43;;;;;;;54.73;19.90;;;;;;;-14.15;62.23;101300.59;121459;1141;104474;-72
2021/01/19 06:08:14;;;;;;;46.83;15.40;;;;;;;-14.12;63.52;101311.13;121614;1141;104335;-73
2021/01/19 06:10:43;;;;;;;59.33;19.47;;;;;;;-14.08;63.67;101304.94;121593;1141;104457;-75
2021/01/19 06:13:17;;;;;;;60.10;21.53;;;;;;;-13.98;62.37;101303.03;121515;1141;104836;-74
2021/01/19 06:15:46;;;;;;;56.23;18.82;;;;;;;-13.92;62.33;101308.06;121738;1141;104456;-74
2021/01/19 06:18:15;;;;;;;53.80;18.87;;;;;;;-13.93;62.26;101303.70;121570;1141;104356;-75
2021/01/19 06:20:44;;;;;;;66.03;19.80;;;;;;;-13.94;63.24;101296.84;121401;1141;104361;-74
2021/01/19 06:23:14;;;;;;;46.17;14.30;;;;;;;-13.93;62.48;101306.22;121385;1141;104361;-75
2021/01/19 06:25:43;;;;;;;47.83;15.27;;;;;;;-13.92;61.93;101303.02;121260;1141;104365;-77
2021/01/19 06:28:13;;;;;;;49.37;17.30;;;;;;;-13.92;62.54;101298.88;121284;1141;104379;-76
2021/01/19 06:30:42;;;;;;;44.30;14.57;;;;;;;-13.83;63.22;101301.81;121260;1141;104358;-76
2021/01/19 06:33:20;;;;;;;32.63;10.53;;;;;;;-13.82;62.47;101301.13;122703;1140;102648;-76
2021/01/19 06:35:55;;;;;;;47.07;16.87;;;;;;;-13.79;63.50;101295.59;122327;1139;104380;-76
2021/01/19 06:38:24;;;;;;;43.45;14.10;;;;;;;-13.67;63.35;101314.11;121372;1141;104401;-75
2021/01/19 06:40:59;;;;;;;40.63;13.13;;;;;;;-13.62;62.29;101309.00;121243;1141;104364;-78
2021/01/19 06:43:35;;;;;;;53.17;17.33;;;;;;;-13.60;62.23;101302.59;121171;1141;104659;-76
2021/01/19 06:46:08;;;;;;;51.67;17.77;;;;;;;-13.51;63.25;101300.44;122588;1140;101809;-77
2021/01/19 06:48:42;;;;;;;49.50;15.83;;;;;;;-13.35;63.16;101300.09;121382;1141;104372;-78
2021/01/19 06:51:13;;;;;;;44.70;16.27;;;;;;;-13.24;62.57;101299.98;123319;1139;101833;-79
2021/01/19 06:54:01;;;;;;;34.23;11.90;;;;;;;-13.17;62.93;101306.81;122765;1140;102553;-77
2021/01/19 06:56:45;;;;;;;54.90;18.77;;;;;;;-13.09;62.62;101299.59;121381;1141;105102;-76
2021/01/19 06:59:30;;;;;;;41.10;11.20;;;;;;;-13.01;62.96;101303.20;123292;1140;102065;-76
2021/01/19 07:02:15;;;;;;;57.27;19.57;;;;;;;-12.99;62.54;101300.89;121290;1141;104839;-77
2021/01/19 07:04:55;;;;;;;46.03;16.17;;;;;;;-12.90;62.08;101297.13;121312;1141;104367;-76
2021/01/19 07:07:46;;;;;;;47.10;14.13;;;;;;;-12.83;62.95;101292.24;122798;1139;102116;-77
2021/01/19 07:10:19;;;;;;;47.73;15.03;;;;;;;-12.78;63.31;101297.94;122904;1139;103303;-79
2021/01/19 07:12:58;;;;;;;46.10;13.55;;;;;;;-12.70;62.68;101305.91;122602;1147;102154;-77
2021/01/19 07:18:44;;;;;;;48.83;16.00;;;;;;;-12.49;63.14;101304.52;120806;1148;104473;-77
2021/01/19 07:21:15;;;;;;;55.97;18.27;;;;;;;-12.44;62.31;101305.16;120755;1147;104359;-75
2021/01/19 07:24:18;;;;;;;56.67;18.10;;;;;;;-12.44;63.19;101308.59;120824;1147;104454;-75
2021/01/19 07:26:47;;;;;;;52.13;16.23;;;;;;;-12.40;63.30;101305.80;120795;1148;104375;-74
2021/01/19 07:29:17;;;;;;;58.77;20.87;;;;;;;-12.31;62.89;101304.54;120638;1147;104391;-77
2021/01/19 07:31:48;;;;;;;51.93;18.57;;;;;;;-12.16;63.77;101308.25;120728;1146;104548;-75
2021/01/19 07:34:20;;;;;;;57.47;20.17;;;;;;;-12.03;63.34;101308.30;120745;1147;104451;-77
2021/01/19 07:36:58;;;;;;;51.00;20.20;;;;;;;-11.85;63.34;101307.34;120766;1148;104356;-78
2021/01/19 07:39:33;;;;;;;53.97;19.43;;;;;;;-11.65;63.51;101307.53;120860;1147;104450;-76
2021/01/19 07:42:14;;;;;;;51.23;17.03;;;;;;;-11.56;63.26;101307.84;121662;1146;104377;-76
2021/01/19 07:44:54;;;;;;;49.37;17.57;;;;;;;-11.54;63.33;101308.98;120745;1147;104345;-77
2021/01/19 07:47:35;;;;;;;56.57;19.00;;;;;;;-11.49;63.31;101307.97;120861;1147;104516;-74
2021/01/19 07:50:07;;;;;;;58.10;20.17;;;;;;;-11.39;63.48;101305.05;120941;1146;104462;-74
2021/01/19 07:52:42;;;;;;;58.17;19.67;;;;;;;-11.22;63.43;101309.84;120899;1146;104426;-77
2021/01/19 07:55:18;;;;;;;55.28;20.12;;;;;;;-10.98;63.42;101312.22;120824;1147;104367;-77
2021/01/19 07:57:51;;;;;;;64.93;22.63;;;;;;;-10.69;63.76;101305.94;120637;1144;104465;-77
2021/01/19 08:00:26;;;;;;;64.90;23.37;;;;;;;-10.40;63.66;101296.15;122110;1152;101849;-78
2021/01/19 08:03:04;;;;;;;59.27;22.13;;;;;;;-10.29;63.35;101294.98;121146;1144;104369;-78
2021/01/19 08:05:34;;;;;;;58.10;20.43;;;;;;;-10.31;62.98;101302.39;120930;1143;104455;-78
2021/01/19 08:08:19;;;;;;;62.53;21.23;;;;;;;-10.26;62.98;101297.02;122966;1142;102084;-77
2021/01/19 08:11:01;;;;;;;63.13;22.77;;;;;;;-10.17;63.48;101294.03;121104;1144;104365;-77
2021/01/19 08:13:35;;;;;;;65.90;24.33;;;;;;;-10.02;63.17;101302.73;120964;1144;104432;-76
2021/01/19 08:16:07;;;;;;;67.80;23.95;;;;;;;-9.90;63.45;101305.92;121185;1143;104543;-78
2021/01/19 08:18:43;;;;;;;61.57;22.17;;;;;;;-9.71;63.20;101306.66;120993;1144;104466;-78
2021/01/19 08:21:29;;;;;;;58.77;23.90;;;;;;;-9.63;62.99;101305.09;120908;1143;104334;-78
2021/01/19 08:24:04;;;;;;;60.67;23.03;;;;;;;-9.45;62.92;101302.36;121095;1143;104461;-77
2021/01/19 08:26:43;;;;;;;62.20;21.97;;;;;;;-9.41;62.89;101304.58;121191;1143;104796;-75
2021/01/19 08:29:28;;;;;;;56.77;21.33;;;;;;;-9.41;63.03;101304.58;120767;1144;105214;-76
2021/01/19 08:32:00;;;;;;;55.70;19.80;;;;;;;-9.37;62.36;101305.88;120679;1144;104379;-77
2021/01/19 08:34:33;;;;;;;71.37;22.87;;;;;;;-9.28;63.33;101296.88;120686;1144;104506;-76
2021/01/19 08:37:06;;;;;;;64.25;21.97;;;;;;;-9.07;63.28;101292.66;120914;1144;104553;-77
2021/01/19 08:39:36;;;;;;;60.30;22.93;;;;;;;-8.89;63.58;101296.61;120922;1144;104531;-77
2021/01/19 08:42:11;;;;;;;59.20;22.83;;;;;;;-8.75;62.48;101294.14;120826;1143;104382;-77
2021/01/19 08:44:40;;;;;;;67.33;26.30;;;;;;;-8.78;62.17;101293.76;120851;1144;104461;-78
2021/01/19 08:47:11;;;;;;;62.63;23.40;;;;;;;-8.87;62.72;101288.42;120898;1142;104448;-78
2021/01/19 08:49:46;;;;;;;68.20;25.70;;;;;;;-8.88;63.27;101288.23;120873;1143;104519;-79
2021/01/19 08:52:18;;;;;;;49.60;18.27;;;;;;;-8.78;62.99;101281.04;120918;1144;104655;-79
2021/01/19 08:54:47;;;;;;;63.50;21.43;;;;;;;-8.83;62.96;101279.56;120938;1144;104588;-78
2021/01/19 08:57:26;;;;;;;67.17;23.93;;;;;;;-8.83;63.21;101287.20;120918;1144;104510;-80
2021/01/19 08:59:59;;;;;;;63.03;25.27;;;;;;;-8.83;63.39;101283.72;120965;1141;104519;-79
2021/01/19 09:02:32;;;;;;;62.88;23.30;;;;;;;-8.78;62.83;101291.22;121467;1141;104439;-78
2021/01/19 09:05:06;;;;;;;71.30;26.10;;;;;;;-8.70;63.23;101297.26;121443;1141;104329;-78
2021/01/19 09:07:42;;;;;;;69.73;25.67;;;;;;;-8.64;62.66;101286.94;121774;1141;103319;-79
2021/01/19 09:10:30;;;;;;;78.17;29.30;;;;;;;-8.46;63.66;101283.19;123259;1139;102135;-81
2021/01/19 09:13:16;;;;;;;99.23;31.83;;;;;;;-8.22;63.78;101275.98;121268;1141;104376;-77
2021/01/19 09:15:47;;;;;;;87.05;32.00;;;;;;;-8.01;63.58;101275.14;121541;1141;104342;-76
2021/01/19 09:18:18;;;;;;;81.00;28.37;;;;;;;-7.83;62.53;101271.34;121598;1139;104460;-76
2021/01/19 09:20:48;;;;;;;75.60;27.70;;;;;;;-7.72;63.02;101267.53;121179;1141;104337;-75
2021/01/19 09:23:23;;;;;;;70.57;26.70;;;;;;;-7.65;63.43;101270.10;121402;1141;104367;-74
2021/01/19 09:26:01;;;;;;;;;;;;;;;-7.52;63.87;101272.47;121360;1141;104347;-76
2021/01/19 09:28:34;;;;;;;74.47;26.93;;;;;;;-7.34;63.60;101266.08;121548;1141;103313;-77
2021/01/19 09:31:17;;;;;;;72.35;26.90;;;;;;;-7.23;63.65;101257.14;121187;1141;104363;-78
2021/01/19 09:33:52;;;;;;;76.60;27.10;;;;;;;-7.07;62.42;101249.67;121526;1141;104473;-79
2021/01/19 09:36:26;;;;;;;64.40;23.73;;;;;;;-7.10;61.97;101251.88;121051;1141;104412;-77
2021/01/19 09:39:00;;;;;;;69.97;26.57;;;;;;;-7.18;63.02;101250.03;121474;1141;104462;-77
2021/01/19 09:41:31;;;;;;;65.28;26.93;;;;;;;-7.17;62.59;101241.66;121326;1141;104520;-77
2021/01/19 09:44:03;;;;;;;54.30;19.90;;;;;;;-7.18;61.75;101239.83;121590;1141;104439;-77
2021/01/19 09:46:35;;;;;;;71.50;24.50;;;;;;;-7.27;62.31;101239.69;121742;1141;104421;-77
2021/01/19 09:49:07;;;;;;;69.17;27.37;;;;;;;-7.34;62.30;101239.67;121228;1141;104375;-77
2021/01/19 09:51:44;;;;;;;68.00;25.93;;;;;;;-7.24;62.55;101233.29;121449;1141;104786;-79
2021/01/19 09:54:25;;;;;;;64.53;23.97;;;;;;;-7.11;62.20;101224.53;121366;1141;104399;-78
2021/01/19 09:56:59;;;;;;;69.47;27.30;;;;;;;-6.99;63.73;101227.61;121659;1141;104436;-77
2021/01/19 09:59:32;;;;;;;69.70;26.25;;;;;;;-6.85;62.46;101229.22;121004;1141;104471;-78
2021/01/19 10:02:03;;;;;;;65.50;25.87;;;;;;;-6.70;63.34;101211.47;121342;1141;104355;-76
2021/01/19 10:04:34;;;;;;;59.60;24.30;;;;;;;-6.71;63.28;101212.19;120967;1141;104423;-77
2021/01/19 10:07:09;;;;;;;64.60;26.47;;;;;;;-6.70;62.57;101210.54;121120;1141;104371;-76
2021/01/19 10:09:42;;;;;;;65.73;22.90;;;;;;;-6.70;61.57;101205.44;121298;1141;104364;-77
2021/01/19 10:12:12;;;;;;;67.37;27.53;;;;;;;-6.70;62.54;101200.33;121382;1141;104401;-80
2021/01/19 10:14:43;;;;;;;65.90;25.77;;;;;;;-6.70;62.87;101202.88;121359;1141;104464;-79
2021/01/19 10:17:16;;;;;;;51.33;20.83;;;;;;;-6.74;62.62;101203.28;121373;1141;104403;-77
2021/01/19 10:19:47;;;;;;;58.47;23.37;;;;;;;-6.76;62.23;101186.86;121382;1141;104465;-77
2021/01/19 10:22:24;;;;;;;57.93;24.17;;;;;;;-6.72;63.06;101186.49;121162;1141;104371;-77
2021/01/19 10:24:53;;;;;;;58.10;21.57;;;;;;;-6.64;62.91;101182.27;121301;1141;104529;-78
2021/01/19 10:27:25;;;;;;;64.87;24.70;;;;;;;-6.58;63.03;101186.42;120860;1141;104372;-77
2021/01/19 10:29:56;;;;;;;64.77;25.00;;;;;;;-6.44;63.05;101181.98;121407;1141;104359;-80
2021/01/19 10:32:28;;;;;;;67.47;26.40;;;;;;;-6.35;63.08;101183.94;121058;1141;104341;-80
2021/01/19 10:34:59;;;;;;;64.53;23.43;;;;;;;-6.22;62.29;101177.66;121489;1141;104367;-79
2021/01/19 10:37:32;;;;;;;60.67;23.93;;;;;;;-6.22;61.85;101181.11;121204;1141;104514;-77
2021/01/19 10:40:02;;;;;;;67.32;26.00;;;;;;;-6.17;62.96;101177.45;121502;1141;104466;-78
2021/01/19 10:42:34;;;;;;;59.80;24.40;;;;;;;-6.07;62.08;101165.71;121457;1141;104423;-78
2021/01/19 10:45:06;;;;;;;54.43;21.13;;;;;;;-6.00;62.55;101161.45;123309;1139;102053;-77
2021/01/19 10:47:40;;;;;;;47.27;17.80;;;;;;;-5.94;62.22;101155.17;123348;1139;102314;-78
2021/01/19 10:50:14;;;;;;;53.87;20.27;;;;;;;-5.86;63.36;101156.92;123328;1140;103029;-76
2021/01/19 10:52:53;;;;;;;55.60;18.80;;;;;;;-5.77;62.44;101153.72;122154;1141;104589;-75
2021/01/19 10:55:23;;;;;;;57.80;20.67;;;;;;;-5.69;62.55;101148.56;121295;1141;104364;-76
2021/01/19 10:57:58;;;;;;;53.73;18.77;;;;;;;-5.62;62.41;101146.84;122607;1142;102091;-76
2021/01/19 11:00:30;;;;;;;65.03;24.60;;;;;;;-5.50;62.23;101144.74;122433;1141;104470;-80
2021/01/19 11:03:01;;;;;;;76.63;26.90;;;;;;;-5.49;62.00;101136.30;123294;1141;103121;-78
2021/01/19 11:05:30;;;;;;;68.77;25.53;;;;;;;-5.44;62.09;101137.73;122300;1139;104366;-79
2021/01/19 11:08:07;;;;;;;76.70;27.37;;;;;;;-5.39;62.15;101134.75;120798;1140;104493;-74
2021/01/19 11:10:39;;;;;;;70.10;25.63;;;;;;;-5.36;62.22;101130.90;121708;1140;102718;-77
2021/01/19 11:13:14;;;;;;;53.03;20.60;;;;;;;-5.39;61.64;101121.96;121120;1141;104361;-78
2021/01/19 11:15:43;;;;;;;68.17;25.63;;;;;;;-5.35;61.93;101130.14;121187;1141;104349;-78
2021/01/19 11:18:13;;;;;;;66.17;27.53;;;;;;;-5.34;61.98;101118.27;122085;1141;104382;-77